sensor_id;sensor_type;location;lat;lon;timestamp;pressure;altitude;pressure_sealevel;temperature;humidity
72395;BME280;60384;48.152;11.614;2023-04-08T00:01:36;95729.13;;;8.24;51.74
72395;BME280;60384;48.152;11.614;2023-04-08T00:04:38;95731.56;;;8.21;52.12
72395;BME280;60384;48.152;11.614;2023-04-08T00:07:41;95724.78;;;8.15;51.75
72395;BME280;60384;48.152;11.614;2023-04-08T00:10:43;95738.41;;;8.13;51.52
72395;BME280;60384;48.152;11.614;2023-04-08T00:13:44;95735.25;;;8.11;52.25
72395;BME280;60384;48.152;11.614;2023-04-08T00:16:46;95737.41;;;8.09;51.72
72395;BME280;60384;48.152;11.614;2023-04-08T00:19:48;95744.91;;;8.07;52.17
72395;BME280;60384;48.152;11.614;2023-04-08T00:22:51;95743.34;;;8.06;52.35
72395;BME280;60384;48.152;11.614;2023-04-08T00:25:52;95740.97;;;8.05;52.15
72395;BME280;60384;48.152;11.614;2023-04-08T00:28:54;95738.59;;;8.03;52.46
72395;BME280;60384;48.152;11.614;2023-04-08T00:31:56;95721.38;;;8.01;51.67
72395;BME280;60384;48.152;11.614;2023-04-08T00:34:57;95742.16;;;7.99;52.08
72395;BME280;60384;48.152;11.614;2023-04-08T00:38:00;95738.81;;;7.93;52.55
72395;BME280;60384;48.152;11.614;2023-04-08T00:41:02;95744.25;;;7.88;52.02
72395;BME280;60384;48.152;11.614;2023-04-08T00:44:04;95739.03;;;7.83;51.64
72395;BME280;60384;48.152;11.614;2023-04-08T00:47:06;95744.16;;;7.79;52.51
72395;BME280;60384;48.152;11.614;2023-04-08T00:50:08;95746.31;;;7.77;52.63
72395;BME280;60384;48.152;11.614;2023-04-08T00:53:11;95743.16;;;7.75;52.60
72395;BME280;60384;48.152;11.614;2023-04-08T00:56:13;95747.50;;;7.71;52.53
72395;BME280;60384;48.152;11.614;2023-04-08T00:59:16;95736.69;;;7.68;51.63
72395;BME280;60384;48.152;11.614;2023-04-08T01:02:19;95748.69;;;7.65;52.59
72395;BME280;60384;48.152;11.614;2023-04-08T01:05:26;95746.31;;;7.64;52.49
72395;BME280;60384;48.152;11.614;2023-04-08T01:08:32;95741.59;;;7.61;51.89
72395;BME280;60384;48.152;11.614;2023-04-08T01:11:40;95741.09;;;7.59;52.46
72395;BME280;60384;48.152;11.614;2023-04-08T01:14:43;95740.91;;;7.55;52.69
72395;BME280;60384;48.152;11.614;2023-04-08T01:17:49;95738.81;;;7.52;52.22
72395;BME280;60384;48.152;11.614;2023-04-08T01:20:53;95738.34;;;7.50;51.89
72395;BME280;60384;48.152;11.614;2023-04-08T01:23:58;95740.78;;;7.46;51.74
72395;BME280;60384;48.152;11.614;2023-04-08T01:27:02;95740.59;;;7.43;52.49
72395;BME280;60384;48.152;11.614;2023-04-08T01:30:05;95737.44;;;7.41;52.20
72395;BME280;60384;48.152;11.614;2023-04-08T01:33:09;95738.03;;;7.38;51.83
72395;BME280;60384;48.152;11.614;2023-04-08T01:36:11;95738.31;;;7.36;52.74
72395;BME280;60384;48.152;11.614;2023-04-08T01:39:14;95737.84;;;7.34;52.37
72395;BME280;60384;48.152;11.614;2023-04-08T01:42:22;95738.41;;;7.31;51.79
72395;BME280;60384;48.152;11.614;2023-04-08T01:45:24;95737.63;;;7.31;52.51
72395;BME280;60384;48.152;11.614;2023-04-08T01:48:27;95740.28;;;7.31;52.34
72395;BME280;60384;48.152;11.614;2023-04-08T01:51:29;95735.25;;;7.29;52.65
72395;BME280;60384;48.152;11.614;2023-04-08T01:54:32;95741.69;;;7.28;52.71
72395;BME280;60384;48.152;11.614;2023-04-08T01:57:36;95740.38;;;7.26;52.19
72395;BME280;60384;48.152;11.614;2023-04-08T02:00:38;95744.13;;;7.25;51.86
72395;BME280;60384;48.152;11.614;2023-04-08T02:03:42;95747.66;;;7.20;52.18
72395;BME280;60384;48.152;11.614;2023-04-08T02:06:44;95747.16;;;7.18;52.27
72395;BME280;60384;48.152;11.614;2023-04-08T02:09:47;95739.28;;;7.13;52.32
72395;BME280;60384;48.152;11.614;2023-04-08T02:12:50;95740.94;;;7.09;51.95
72395;BME280;60384;48.152;11.614;2023-04-08T02:15:53;95748.41;;;7.07;52.30
72395;BME280;60384;48.152;11.614;2023-04-08T02:18:58;95743.41;;;7.05;53.09
72395;BME280;60384;48.152;11.614;2023-04-08T02:22:04;95742.91;;;7.03;52.01
72395;BME280;60384;48.152;11.614;2023-04-08T02:25:08;95744.56;;;6.99;52.94
72395;BME280;60384;48.152;11.614;2023-04-08T02:28:13;95749.09;;;6.99;52.53
72395;BME280;60384;48.152;11.614;2023-04-08T02:31:16;95745.94;;;6.97;52.53
72395;BME280;60384;48.152;11.614;2023-04-08T02:34:19;95748.31;;;6.98;52.53
72395;BME280;60384;48.152;11.614;2023-04-08T02:37:21;95748.06;;;6.95;52.82
72395;BME280;60384;48.152;11.614;2023-04-08T02:40:24;95738.34;;;6.90;52.42
72395;BME280;60384;48.152;11.614;2023-04-08T02:43:27;95745.81;;;6.88;52.59
72395;BME280;60384;48.152;11.614;2023-04-08T02:46:31;95737.63;;;6.85;52.78
72395;BME280;60384;48.152;11.614;2023-04-08T02:49:33;95732.91;;;6.82;53.29
72395;BME280;60384;48.152;11.614;2023-04-08T02:52:34;95731.63;;;6.79;53.16
72395;BME280;60384;48.152;11.614;2023-04-08T02:55:36;95733.78;;;6.77;52.78
72395;BME280;60384;48.152;11.614;2023-04-08T02:58:40;95736.44;;;6.77;52.50
72395;BME280;60384;48.152;11.614;2023-04-08T03:01:41;95739.09;;;6.77;52.26
72395;BME280;60384;48.152;11.614;2023-04-08T03:04:43;95735.34;;;6.78;53.30
72395;BME280;60384;48.152;11.614;2023-04-08T03:07:45;95741.16;;;6.80;52.39
72395;BME280;60384;48.152;11.614;2023-04-08T03:10:46;95736.91;;;6.79;52.97
72395;BME280;60384;48.152;11.614;2023-04-08T03:13:49;95740.66;;;6.78;52.50
72395;BME280;60384;48.152;11.614;2023-04-08T03:16:51;95749.72;;;6.77;53.23
72395;BME280;60384;48.152;11.614;2023-04-08T03:19:53;95746.56;;;6.75;52.25
72395;BME280;60384;48.152;11.614;2023-04-08T03:22:54;95748.13;;;6.76;52.57
72395;BME280;60384;48.152;11.614;2023-04-08T03:25:56;95746.56;;;6.75;52.42
72395;BME280;60384;48.152;11.614;2023-04-08T03:28:59;95757.19;;;6.75;52.97
72395;BME280;60384;48.152;11.614;2023-04-08T03:32:01;95744.69;;;6.76;53.10
72395;BME280;60384;48.152;11.614;2023-04-08T03:35:03;95746.56;;;6.75;52.96
72395;BME280;60384;48.152;11.614;2023-04-08T03:38:04;95748.13;;;6.76;53.49
72395;BME280;60384;48.152;11.614;2023-04-08T03:41:06;95751.59;;;6.77;52.75
72395;BME280;60384;48.152;11.614;2023-04-08T03:44:09;95748.94;;;6.77;52.36
72395;BME280;60384;48.152;11.614;2023-04-08T03:47:11;95759.53;;;6.77;53.01
72395;BME280;60384;48.152;11.614;2023-04-08T03:50:12;95756.59;;;6.78;53.26
72395;BME280;60384;48.152;11.614;2023-04-08T03:53:14;95755.50;;;6.79;53.26
72395;BME280;60384;48.152;11.614;2023-04-08T03:56:16;95759.75;;;6.80;52.55
72395;BME280;60384;48.152;11.614;2023-04-08T03:59:19;95755.50;;;6.79;53.56
72395;BME280;60384;48.152;11.614;2023-04-08T04:02:20;95760.03;;;6.79;52.93
72395;BME280;60384;48.152;11.614;2023-04-08T04:05:22;95758.94;;;6.80;53.03
72395;BME280;60384;48.152;11.614;2023-04-08T04:08:23;95759.75;;;6.80;53.08
72395;BME280;60384;48.152;11.614;2023-04-08T04:11:25;95775.41;;;6.82;53.37
72395;BME280;60384;48.152;11.614;2023-04-08T04:14:28;95781.50;;;6.82;53.38
72395;BME280;60384;48.152;11.614;2023-04-08T04:17:30;95782.28;;;6.83;53.23
72395;BME280;60384;48.152;11.614;2023-04-08T04:20:31;95791.03;;;6.83;53.11
72395;BME280;60384;48.152;11.614;2023-04-08T04:23:33;95787.28;;;6.84;53.04
72395;BME280;60384;48.152;11.614;2023-04-08T04:26:35;95793.09;;;6.86;53.25
72395;BME280;60384;48.152;11.614;2023-04-08T04:29:38;95792.50;;;6.89;53.44
72395;BME280;60384;48.152;11.614;2023-04-08T04:32:39;95798.63;;;6.90;52.88
72395;BME280;60384;48.152;11.614;2023-04-08T04:35:42;95795.97;;;6.90;53.14
72395;BME280;60384;48.152;11.614;2023-04-08T04:38:43;95794.41;;;6.89;52.85
72395;BME280;60384;48.152;11.614;2023-04-08T04:41:45;95793.63;;;6.88;53.16
72395;BME280;60384;48.152;11.614;2023-04-08T04:44:49;95801.28;;;6.90;53.49
72395;BME280;60384;48.152;11.614;2023-04-08T04:47:51;95804.72;;;6.90;53.55
72395;BME280;60384;48.152;11.614;2023-04-08T04:50:55;95810.03;;;6.90;53.69
72395;BME280;60384;48.152;11.614;2023-04-08T04:53:57;95808.16;;;6.91;53.18
72395;BME280;60384;48.152;11.614;2023-04-08T04:56:59;95808.94;;;6.91;52.71
72395;BME280;60384;48.152;11.614;2023-04-08T05:00:03;95812.91;;;6.94;52.88
72395;BME280;60384;48.152;11.614;2023-04-08T05:03:05;95807.28;;;6.95;52.54
72395;BME280;60384;48.152;11.614;2023-04-08T05:06:07;95810.44;;;6.97;53.28
72395;BME280;60384;48.152;11.614;2023-04-08T05:09:08;95814.41;;;7.00;53.44
72395;BME280;60384;48.152;11.614;2023-04-08T05:12:10;95807.72;;;7.02;53.60
72395;BME280;60384;48.152;11.614;2023-04-08T05:15:13;95819.63;;;7.05;53.35
72395;BME280;60384;48.152;11.614;2023-04-08T05:18:15;95820.91;;;7.07;53.34
72395;BME280;60384;48.152;11.614;2023-04-08T05:21:16;95804.69;;;7.09;53.26
72395;BME280;60384;48.152;11.614;2023-04-08T05:24:18;95804.88;;;7.13;52.47
72395;BME280;60384;48.152;11.614;2023-04-08T05:27:20;95807.19;;;7.19;52.95
72395;BME280;60384;48.152;11.614;2023-04-08T05:30:23;95808.19;;;7.23;53.29
72395;BME280;60384;48.152;11.614;2023-04-08T05:33:25;95809.47;;;7.26;53.28
72395;BME280;60384;48.152;11.614;2023-04-08T05:36:26;95809.19;;;7.27;53.30
72395;BME280;60384;48.152;11.614;2023-04-08T05:39:28;95805.44;;;7.28;53.10
72395;BME280;60384;48.152;11.614;2023-04-08T05:42:30;95808.28;;;7.32;52.49
72395;BME280;60384;48.152;11.614;2023-04-08T05:45:33;95805.25;;;7.38;53.33
72395;BME280;60384;48.152;11.614;2023-04-08T05:48:35;95812.94;;;7.40;52.38
72395;BME280;60384;48.152;11.614;2023-04-08T05:51:37;95808.72;;;7.39;52.60
72395;BME280;60384;48.152;11.614;2023-04-08T05:54:41;95814.03;;;7.39;53.43
72395;BME280;60384;48.152;11.614;2023-04-08T05:57:43;95820.03;;;7.44;53.38
72395;BME280;60384;48.152;11.614;2023-04-08T06:00:46;95814.63;;;7.50;52.69
72395;BME280;60384;48.152;11.614;2023-04-08T06:03:47;95812.97;;;7.54;52.37
72395;BME280;60384;48.152;11.614;2023-04-08T06:06:49;95820.38;;;7.57;53.29
72395;BME280;60384;48.152;11.614;2023-04-08T06:09:50;95819.06;;;7.54;52.45
72395;BME280;60384;48.152;11.614;2023-04-08T06:12:52;95824.09;;;7.56;52.59
72395;BME280;60384;48.152;11.614;2023-04-08T06:15:55;95830.41;;;7.60;52.46
72395;BME280;60384;48.152;11.614;2023-04-08T06:18:57;95839.34;;;7.64;52.41
72395;BME280;60384;48.152;11.614;2023-04-08T06:21:58;95838.28;;;7.65;53.27
72395;BME280;60384;48.152;11.614;2023-04-08T06:25:00;95839.84;;;7.66;53.40
72395;BME280;60384;48.152;11.614;2023-04-08T06:28:01;95843.03;;;7.68;53.34
72395;BME280;60384;48.152;11.614;2023-04-08T06:31:04;95835.63;;;7.65;53.51
72395;BME280;60384;48.152;11.614;2023-04-08T06:34:06;95841.22;;;7.63;53.51
72395;BME280;60384;48.152;11.614;2023-04-08T06:37:07;95843.88;;;7.63;53.68
72395;BME280;60384;48.152;11.614;2023-04-08T06:40:09;95845.47;;;7.64;53.66
72395;BME280;60384;48.152;11.614;2023-04-08T06:43:11;95851.09;;;7.63;53.36
72395;BME280;60384;48.152;11.614;2023-04-08T06:46:15;95851.84;;;7.63;52.62
72395;BME280;60384;48.152;11.614;2023-04-08T06:49:17;95855.91;;;7.61;52.95
72395;BME280;60384;48.152;11.614;2023-04-08T06:52:22;95857.78;;;7.60;52.81
72395;BME280;60384;48.152;11.614;2023-04-08T06:55:23;95853.81;;;7.58;53.57
72395;BME280;60384;48.152;11.614;2023-04-08T06:58:25;95864.38;;;7.63;53.66
72395;BME280;60384;48.152;11.614;2023-04-08T07:01:28;95862.72;;;7.67;52.93
72395;BME280;60384;48.152;11.614;2023-04-08T07:04:30;95863.50;;;7.67;52.82
72395;BME280;60384;48.152;11.614;2023-04-08T07:07:31;95866.63;;;7.69;53.17
72395;BME280;60384;48.152;11.614;2023-04-08T07:10:33;95860.75;;;7.72;52.76
72395;BME280;60384;48.152;11.614;2023-04-08T07:13:35;95866.56;;;7.74;53.24
72395;BME280;60384;48.152;11.614;2023-04-08T07:16:38;95868.91;;;7.76;53.25
72395;BME280;60384;48.152;11.614;2023-04-08T07:19:39;95868.53;;;7.82;53.02
72395;BME280;60384;48.152;11.614;2023-04-08T07:22:43;95871.72;;;7.84;52.79
72395;BME280;60384;48.152;11.614;2023-04-08T07:25:44;95872.69;;;7.88;52.70
72395;BME280;60384;48.152;11.614;2023-04-08T07:28:47;95880.84;;;7.92;52.75
72395;BME280;60384;48.152;11.614;2023-04-08T07:31:50;95882.94;;;7.95;53.63
72395;BME280;60384;48.152;11.614;2023-04-08T07:34:51;95882.94;;;7.95;53.61
72395;BME280;60384;48.152;11.614;2023-04-08T07:37:53;95888.53;;;7.94;52.81
72395;BME280;60384;48.152;11.614;2023-04-08T07:40:55;95893.78;;;7.99;52.82
72395;BME280;60384;48.152;11.614;2023-04-08T07:43:56;95901.19;;;8.02;52.89
72395;BME280;60384;48.152;11.614;2023-04-08T07:46:59;95903.25;;;8.05;53.27
72395;BME280;60384;48.152;11.614;2023-04-08T07:50:01;95897.53;;;8.11;53.44
72395;BME280;60384;48.152;11.614;2023-04-08T07:53:03;95901.69;;;8.17;52.61
72395;BME280;60384;48.152;11.614;2023-04-08T07:56:09;95895.38;;;8.27;52.71
72395;BME280;60384;48.152;11.614;2023-04-08T07:59:11;95887.88;;;8.29;52.50
72395;BME280;60384;48.152;11.614;2023-04-08T08:02:14;95894.09;;;8.24;52.97
72395;BME280;60384;48.152;11.614;2023-04-08T08:05:16;95890.38;;;8.25;52.75
72395;BME280;60384;48.152;11.614;2023-04-08T08:08:17;95897.16;;;8.32;53.16
72395;BME280;60384;48.152;11.614;2023-04-08T08:11:19;95902.09;;;8.24;53.32
72395;BME280;60384;48.152;11.614;2023-04-08T08:14:21;95904.94;;;8.14;53.40
72395;BME280;60384;48.152;11.614;2023-04-08T08:17:25;95897.13;;;8.04;53.75
72395;BME280;60384;48.152;11.614;2023-04-08T08:20:29;95905.81;;;7.96;53.15
72395;BME280;60384;48.152;11.614;2023-04-08T08:23:31;95913.38;;;7.89;54.03
72395;BME280;60384;48.152;11.614;2023-04-08T08:26:33;95908.44;;;7.82;54.14
72395;BME280;60384;48.152;11.614;2023-04-08T08:29:36;95901.06;;;7.79;53.25
72395;BME280;60384;48.152;11.614;2023-04-08T08:32:39;95907.22;;;7.75;53.23
72395;BME280;60384;48.152;11.614;2023-04-08T08:35:40;95915.00;;;7.71;53.79
72395;BME280;60384;48.152;11.614;2023-04-08T08:38:42;95924.66;;;7.67;53.30
72395;BME280;60384;48.152;11.614;2023-04-08T08:41:44;95922.78;;;7.68;53.65
72395;BME280;60384;48.152;11.614;2023-04-08T08:44:45;95920.13;;;7.68;53.68
72395;BME280;60384;48.152;11.614;2023-04-08T08:47:48;95928.28;;;7.71;53.76
72395;BME280;60384;48.152;11.614;2023-04-08T08:50:51;95926.34;;;7.77;53.18
72395;BME280;60384;48.152;11.614;2023-04-08T08:53:52;95930.50;;;7.83;53.23
72395;BME280;60384;48.152;11.614;2023-04-08T08:56:54;95927.75;;;7.88;53.21
72395;BME280;60384;48.152;11.614;2023-04-08T08:59:56;95939.19;;;7.88;52.91
72395;BME280;60384;48.152;11.614;2023-04-08T09:03:09;95926.66;;;7.89;53.18
72395;BME280;60384;48.152;11.614;2023-04-08T09:06:16;95936.31;;;7.85;53.76
72395;BME280;60384;48.152;11.614;2023-04-08T09:09:18;95944.66;;;7.78;54.05
72395;BME280;60384;48.152;11.614;2023-04-08T09:12:20;95943.38;;;7.76;54.12
72395;BME280;60384;48.152;11.614;2023-04-08T09:15:22;95951.34;;;7.76;53.16
72395;BME280;60384;48.152;11.614;2023-04-08T09:18:25;95949.19;;;7.78;53.99
72395;BME280;60384;48.152;11.614;2023-04-08T09:21:27;95950.00;;;7.78;53.58
72395;BME280;60384;48.152;11.614;2023-04-08T09:24:29;95940.00;;;7.70;53.90
72395;BME280;60384;48.152;11.614;2023-04-08T09:27:34;95944.63;;;7.65;53.86
72395;BME280;60384;48.152;11.614;2023-04-08T09:30:35;95942.31;;;7.58;54.07
72395;BME280;60384;48.152;11.614;2023-04-08T09:33:39;95953.56;;;7.55;53.61
72395;BME280;60384;48.152;11.614;2023-04-08T09:36:41;95953.63;;;7.50;53.49
72395;BME280;60384;48.152;11.614;2023-04-08T09:39:43;95949.75;;;7.42;53.86
72395;BME280;60384;48.152;11.614;2023-04-08T09:42:46;95953.28;;;7.38;54.35
72395;BME280;60384;48.152;11.614;2023-04-08T09:45:49;95954.16;;;7.33;54.31
72395;BME280;60384;48.152;11.614;2023-04-08T09:48:57;95956.31;;;7.31;53.48
72395;BME280;60384;48.152;11.614;2023-04-08T09:52:05;95950.19;;;7.31;53.59
72395;BME280;60384;48.152;11.614;2023-04-08T09:55:07;95953.56;;;7.36;53.99
72395;BME280;60384;48.152;11.614;2023-04-08T09:58:10;95946.81;;;7.44;54.14
72395;BME280;60384;48.152;11.614;2023-04-08T10:01:15;95942.31;;;7.58;53.00
72395;BME280;60384;48.152;11.614;2023-04-08T10:04:22;95947.00;;;7.66;52.96
72395;BME280;60384;48.152;11.614;2023-04-08T10:07:24;95939.72;;;7.72;52.75
72395;BME280;60384;48.152;11.614;2023-04-08T10:10:26;95949.63;;;7.85;52.75
72395;BME280;60384;48.152;11.614;2023-04-08T10:13:28;95944.44;;;8.07;52.30
72395;BME280;60384;48.152;11.614;2023-04-08T10:16:31;95938.88;;;8.50;52.04
72395;BME280;60384;48.152;11.614;2023-04-08T10:19:37;95949.00;;;8.89;51.40
72395;BME280;60384;48.152;11.614;2023-04-08T10:22:45;95938.25;;;8.94;51.76
72395;BME280;60384;48.152;11.614;2023-04-08T10:25:47;95943.66;;;9.02;51.71
72395;BME280;60384;48.152;11.614;2023-04-08T10:28:49;95937.59;;;8.88;51.72
72395;BME280;60384;48.152;11.614;2023-04-08T10:31:50;95938.09;;;8.63;52.28
72395;BME280;60384;48.152;11.614;2023-04-08T10:34:54;95942.53;;;8.40;53.38
72395;BME280;60384;48.152;11.614;2023-04-08T10:37:55;95942.47;;;8.26;53.49
72395;BME280;60384;48.152;11.614;2023-04-08T10:40:57;95929.78;;;8.23;52.82
72395;BME280;60384;48.152;11.614;2023-04-08T10:44:01;95934.91;;;8.20;53.12
72395;BME280;60384;48.152;11.614;2023-04-08T10:47:03;95938.03;;;8.08;53.22
72395;BME280;60384;48.152;11.614;2023-04-08T10:50:12;95936.84;;;8.01;53.91
72395;BME280;60384;48.152;11.614;2023-04-08T10:53:14;95942.16;;;8.01;53.35
72395;BME280;60384;48.152;11.614;2023-04-08T10:56:16;95941.38;;;8.00;53.53
72395;BME280;60384;48.152;11.614;2023-04-08T10:59:26;95938.81;;;7.95;53.79
72395;BME280;60384;48.152;11.614;2023-04-08T11:02:31;95943.94;;;7.92;53.72
72395;BME280;60384;48.152;11.614;2023-04-08T11:05:34;95933.84;;;7.88;54.56
72395;BME280;60384;48.152;11.614;2023-04-08T11:08:36;95941.56;;;7.90;54.38
72395;BME280;60384;48.152;11.614;2023-04-08T11:11:38;95948.75;;;7.89;54.58
72395;BME280;60384;48.152;11.614;2023-04-08T11:14:41;95945.56;;;7.87;53.54
72395;BME280;60384;48.152;11.614;2023-04-08T11:17:43;95940.53;;;7.86;54.66
72395;BME280;60384;48.152;11.614;2023-04-08T11:20:46;95943.28;;;7.81;54.57
72395;BME280;60384;48.152;11.614;2023-04-08T11:23:50;95950.78;;;7.79;54.10
72395;BME280;60384;48.152;11.614;2023-04-08T11:26:52;95952.94;;;7.77;54.45
72395;BME280;60384;48.152;11.614;2023-04-08T11:29:54;95954.50;;;7.78;54.59
72395;BME280;60384;48.152;11.614;2023-04-08T11:32:56;95957.47;;;7.76;54.66
72395;BME280;60384;48.152;11.614;2023-04-08T11:35:59;95952.44;;;7.75;54.13
72395;BME280;60384;48.152;11.614;2023-04-08T11:39:06;95956.19;;;7.74;53.62
72395;BME280;60384;48.152;11.614;2023-04-08T11:42:10;95957.75;;;7.75;54.36
72395;BME280;60384;48.152;11.614;2023-04-08T11:45:26;95957.47;;;7.76;54.69
72395;BME280;60384;48.152;11.614;2023-04-08T11:48:28;95961.69;;;7.77;54.36
72395;BME280;60384;48.152;11.614;2023-04-08T11:51:34;95960.13;;;7.76;53.97
72395;BME280;60384;48.152;11.614;2023-04-08T11:54:39;95958.34;;;7.72;53.67
72395;BME280;60384;48.152;11.614;2023-04-08T11:57:41;95963.94;;;7.70;53.57
72395;BME280;60384;48.152;11.614;2023-04-08T12:00:43;95961.50;;;7.74;53.99
72395;BME280;60384;48.152;11.614;2023-04-08T12:03:55;95966.03;;;7.73;53.46
72395;BME280;60384;48.152;11.614;2023-04-08T12:06:58;95968.25;;;7.66;54.67
72395;BME280;60384;48.152;11.614;2023-04-08T12:09:59;95977.59;;;7.64;53.90
72395;BME280;60384;48.152;11.614;2023-04-08T12:13:01;95973.66;;;7.61;54.61
72395;BME280;60384;48.152;11.614;2023-04-08T12:16:03;95979.19;;;7.65;53.75
72395;BME280;60384;48.152;11.614;2023-04-08T12:19:05;95968.47;;;7.70;54.66
72395;BME280;60384;48.152;11.614;2023-04-08T12:22:07;95979.88;;;7.70;53.94
72395;BME280;60384;48.152;11.614;2023-04-08T12:25:09;95979.88;;;7.70;53.60
72395;BME280;60384;48.152;11.614;2023-04-08T12:28:11;95987.66;;;7.67;54.57
72395;BME280;60384;48.152;11.614;2023-04-08T12:31:12;95987.16;;;7.65;54.11
72395;BME280;60384;48.152;11.614;2023-04-08T12:34:14;95985.56;;;7.64;53.79
72395;BME280;60384;48.152;11.614;2023-04-08T12:37:17;95985.00;;;7.67;54.66
72395;BME280;60384;48.152;11.614;2023-04-08T12:40:19;95991.41;;;7.66;54.68
72395;BME280;60384;48.152;11.614;2023-04-08T12:43:21;95993.06;;;7.62;54.59
72395;BME280;60384;48.152;11.614;2023-04-08T12:46:23;95990.50;;;7.57;53.75
72395;BME280;60384;48.152;11.614;2023-04-08T12:49:25;95988.19;;;7.50;53.83
72395;BME280;60384;48.152;11.614;2023-04-08T12:52:28;95993.88;;;7.43;54.63
72395;BME280;60384;48.152;11.614;2023-04-08T12:55:30;95995.22;;;7.41;54.32
72395;BME280;60384;48.152;11.614;2023-04-08T12:58:31;95995.00;;;7.37;54.04
72395;BME280;60384;48.152;11.614;2023-04-08T13:01:33;95993.22;;;7.33;54.93
72395;BME280;60384;48.152;11.614;2023-04-08T13:04:34;95995.94;;;7.28;54.35
72395;BME280;60384;48.152;11.614;2023-04-08T13:07:37;95996.81;;;7.23;54.71
72395;BME280;60384;48.152;11.614;2023-04-08T13:10:40;95996.84;;;7.18;54.12
72395;BME280;60384;48.152;11.614;2023-04-08T13:13:42;95990.75;;;7.18;54.74
72395;BME280;60384;48.152;11.614;2023-04-08T13:16:45;95998.16;;;7.21;54.69
72395;BME280;60384;48.152;11.614;2023-04-08T13:19:47;95999.16;;;7.25;54.75
72395;BME280;60384;48.152;11.614;2023-04-08T13:22:51;96003.69;;;7.24;54.59
72395;BME280;60384;48.152;11.614;2023-04-08T13:25:53;96001.34;;;7.23;54.66
72395;BME280;60384;48.152;11.614;2023-04-08T13:28:54;96003.47;;;7.21;54.59
72395;BME280;60384;48.152;11.614;2023-04-08T13:31:56;95997.66;;;7.19;54.99
72395;BME280;60384;48.152;11.614;2023-04-08T13:34:58;95997.97;;;7.17;54.71
72395;BME280;60384;48.152;11.614;2023-04-08T13:38:01;95999.31;;;7.15;54.98
72395;BME280;60384;48.152;11.614;2023-04-08T13:41:03;96003.81;;;7.14;54.30
72395;BME280;60384;48.152;11.614;2023-04-08T13:44:05;96011.28;;;7.12;54.11
72395;BME280;60384;48.152;11.614;2023-04-08T13:47:06;96002.31;;;7.08;54.21
72395;BME280;60384;48.152;11.614;2023-04-08T13:50:08;96004.97;;;7.08;54.47
72395;BME280;60384;48.152;11.614;2023-04-08T13:53:11;96006.34;;;7.05;54.34
72395;BME280;60384;48.152;11.614;2023-04-08T13:56:13;96014.59;;;7.04;55.21
72395;BME280;60384;48.152;11.614;2023-04-08T13:59:14;96016.19;;;7.05;54.58
72395;BME280;60384;48.152;11.614;2023-04-08T14:02:16;96007.91;;;7.06;54.88
72395;BME280;60384;48.152;11.614;2023-04-08T14:05:18;96011.06;;;7.09;54.05
72395;BME280;60384;48.152;11.614;2023-04-08T14:08:20;96016.59;;;7.12;54.58
72395;BME280;60384;48.152;11.614;2023-04-08T14:11:24;96007.78;;;7.17;54.42
72395;BME280;60384;48.152;11.614;2023-04-08T14:14:26;96014.91;;;7.21;53.93
72395;BME280;60384;48.152;11.614;2023-04-08T14:17:27;96017.31;;;7.18;53.87
72395;BME280;60384;48.152;11.614;2023-04-08T14:20:29;96021.34;;;7.15;54.49
72395;BME280;60384;48.152;11.614;2023-04-08T14:23:32;96015.47;;;7.18;54.24
72395;BME280;60384;48.152;11.614;2023-04-08T14:26:34;96018.41;;;7.17;54.78
72395;BME280;60384;48.152;11.614;2023-04-08T14:29:36;96019.22;;;7.17;54.53
72395;BME280;60384;48.152;11.614;2023-04-08T14:32:37;96014.38;;;7.19;54.33
72395;BME280;60384;48.152;11.614;2023-04-08T14:35:39;96019.41;;;7.21;54.07
72395;BME280;60384;48.152;11.614;2023-04-08T14:38:42;96025.25;;;7.23;54.67
72395;BME280;60384;48.152;11.614;2023-04-08T14:41:44;96028.91;;;7.27;54.12
72395;BME280;60384;48.152;11.614;2023-04-08T14:44:46;96026.81;;;7.24;54.20
72395;BME280;60384;48.152;11.614;2023-04-08T14:47:48;96030.41;;;7.14;55.04
72395;BME280;60384;48.152;11.614;2023-04-08T14:50:50;96029.88;;;7.12;54.32
72395;BME280;60384;48.152;11.614;2023-04-08T14:53:53;96030.66;;;7.13;54.25
72395;BME280;60384;48.152;11.614;2023-04-08T14:56:54;96037.28;;;7.15;55.29
72395;BME280;60384;48.152;11.614;2023-04-08T14:59:56;96044.19;;;7.16;54.81
72395;BME280;60384;48.152;11.614;2023-04-08T15:02:58;96039.69;;;7.17;55.15
72395;BME280;60384;48.152;11.614;2023-04-08T15:06:00;96035.91;;;7.18;55.07
72395;BME280;60384;48.152;11.614;2023-04-08T15:09:03;96040.22;;;7.14;54.28
72395;BME280;60384;48.152;11.614;2023-04-08T15:12:05;96044.03;;;7.07;54.27
72395;BME280;60384;48.152;11.614;2023-04-08T15:15:07;96041.22;;;6.99;55.03
72395;BME280;60384;48.152;11.614;2023-04-08T15:18:09;96046.59;;;6.94;55.30
72395;BME280;60384;48.152;11.614;2023-04-08T15:21:10;96043.41;;;6.92;55.25
72395;BME280;60384;48.152;11.614;2023-04-08T15:24:13;96049.53;;;6.92;55.27
72395;BME280;60384;48.152;11.614;2023-04-08T15:27:15;96053.47;;;6.95;55.38
72395;BME280;60384;48.152;11.614;2023-04-08T15:30:16;96049.72;;;6.96;55.53
72395;BME280;60384;48.152;11.614;2023-04-08T15:33:23;96049.78;;;6.91;55.18
72395;BME280;60384;48.152;11.614;2023-04-08T15:36:25;96053.25;;;6.91;55.52
72395;BME280;60384;48.152;11.614;2023-04-08T15:39:28;96050.03;;;6.94;55.12
72395;BME280;60384;48.152;11.614;2023-04-08T15:42:30;96048.94;;;6.95;55.35
72395;BME280;60384;48.152;11.614;2023-04-08T15:45:32;96052.13;;;6.97;54.54
72395;BME280;60384;48.152;11.614;2023-04-08T15:48:33;96054.03;;;6.92;54.76
72395;BME280;60384;48.152;11.614;2023-04-08T15:51:35;96059.13;;;6.88;55.55
72395;BME280;60384;48.152;11.614;2023-04-08T15:54:38;96063.66;;;6.88;54.63
72395;BME280;60384;48.152;11.614;2023-04-08T15:57:40;96052.72;;;6.89;54.76
72395;BME280;60384;48.152;11.614;2023-04-08T16:00:41;96059.34;;;6.92;54.92
72395;BME280;60384;48.152;11.614;2023-04-08T16:03:43;96064.94;;;6.90;54.79
72395;BME280;60384;48.152;11.614;2023-04-08T16:06:45;96064.66;;;6.92;54.89